Pagina principale
METAR-TAF:

METAR-TAF

Aeroporti :

Aeroporto Internazionale di Hato

Curaçao, Antille olandesi

latitudine: 12-12N, longitudine: 068-58W, altezza: 9 m

Osservazione

Il bollettino è stato emesso 1 ora e 20 minuti fa, alle 01:00 UTC
Vento 11 kt da est
Temperature 28°C
Umidità 84%
Pressione 1012 hPa
Visibilità 10 km o più
Poco nuvoloso ad un'altezza di 1800 ft

METAR: TNCC 210100Z 09011KT 9999 FEW018 28/25 Q1012 NOSIG

Ora: 22:20 (02:20 UTC)

Previsione

Il bollettino è stato emesso 3 ore e 20 minuti fa, alle 23:00 UTC
Previsione valida dal 21 alle 00 UTC al 21 alle 24 UTC
Vento 12 kt da est
Visibilità 10 km o più
Nuvoloso ad un'altezza di 1800 ft
Probabilità 30% :
Temporaneamente
dal 21 alle 09 UTC al 21 alle 15 UTC
Visibilità: 7000 m
Nuvoloso ad un'altezza di 1400 ft
rovesci di pioggia,

TAF: TNCC 202300Z 2100/2124 10012KT 9999 BKN018 PROB30 TEMPO 2109/2115 7000 SHRA BKN014

Osservazioni e previsioni meteorologiche di più di 4000 aeroporti (messaggi METAR e TAF).

Le stazioni disponibili sono rappresentate dai dischi gialli e rossi sulla carta.

Puntare il mouse per vedere il nome della stazione.

Clicca sopra per visualizzare le osservazioni e previsioni meteorologiche.

Per cambiare la mappa : fare clic sui pulsanti verdi con una croce nera per ingrandire, il pulsante verde con un trattino per diminuire, o sulla freccia verde per le mappe adiacenti.


METAR-TAF: